sensor_id;sensor_type;location;lat;lon;timestamp;P1;durP1;ratioP1;P2;durP2;ratioP2
15102;SDS011;7652;53.584;9.998;2022-09-27T00:00:06;2.10;;;1.90;;
15102;SDS011;7652;53.584;9.998;2022-09-27T00:03:09;3.83;;;2.13;;
15102;SDS011;7652;53.584;9.998;2022-09-27T00:06:14;2.40;;;2.20;;
15102;SDS011;7652;53.584;9.998;2022-09-27T00:09:20;2.30;;;2.10;;
15102;SDS011;7652;53.584;9.998;2022-09-27T00:12:23;3.13;;;1.90;;
15102;SDS011;7652;53.584;9.998;2022-09-27T00:15:27;3.77;;;2.27;;
15102;SDS011;7652;53.584;9.998;2022-09-27T00:18:30;3.80;;;2.30;;
15102;SDS011;7652;53.584;9.998;2022-09-27T00:21:34;2.73;;;2.17;;
15102;SDS011;7652;53.584;9.998;2022-09-27T00:24:37;3.23;;;2.20;;
15102;SDS011;7652;53.584;9.998;2022-09-27T00:27:40;3.47;;;2.30;;
15102;SDS011;7652;53.584;9.998;2022-09-27T00:30:44;2.33;;;2.13;;
15102;SDS011;7652;53.584;9.998;2022-09-27T00:33:48;4.20;;;2.43;;
15102;SDS011;7652;53.584;9.998;2022-09-27T00:36:52;2.20;;;2.03;;
15102;SDS011;7652;53.584;9.998;2022-09-27T00:39:55;2.87;;;2.10;;
15102;SDS011;7652;53.584;9.998;2022-09-27T00:42:58;2.37;;;2.17;;
15102;SDS011;7652;53.584;9.998;2022-09-27T00:46:03;2.30;;;2.10;;
15102;SDS011;7652;53.584;9.998;2022-09-27T00:49:08;1.97;;;1.87;;
15102;SDS011;7652;53.584;9.998;2022-09-27T00:52:20;2.00;;;1.90;;
15102;SDS011;7652;53.584;9.998;2022-09-27T00:55:26;2.13;;;2.03;;
15102;SDS011;7652;53.584;9.998;2022-09-27T00:58:32;2.23;;;2.10;;
15102;SDS011;7652;53.584;9.998;2022-09-27T01:01:39;2.63;;;2.00;;
15102;SDS011;7652;53.584;9.998;2022-09-27T01:04:42;2.20;;;2.10;;
15102;SDS011;7652;53.584;9.998;2022-09-27T01:07:47;2.33;;;2.07;;
15102;SDS011;7652;53.584;9.998;2022-09-27T01:10:52;2.83;;;2.00;;
15102;SDS011;7652;53.584;9.998;2022-09-27T01:14:21;2.60;;;2.30;;
15102;SDS011;7652;53.584;9.998;2022-09-27T01:17:38;4.60;;;2.20;;
15102;SDS011;7652;53.584;9.998;2022-09-27T01:20:54;2.50;;;2.30;;
15102;SDS011;7652;53.584;9.998;2022-09-27T01:24:37;2.07;;;1.83;;
15102;SDS011;7652;53.584;9.998;2022-09-27T01:28:08;3.30;;;2.07;;
15102;SDS011;7652;53.584;9.998;2022-09-27T01:31:26;2.00;;;1.90;;
15102;SDS011;7652;53.584;9.998;2022-09-27T01:34:37;2.53;;;2.17;;
15102;SDS011;7652;53.584;9.998;2022-09-27T01:37:48;2.20;;;2.00;;
15102;SDS011;7652;53.584;9.998;2022-09-27T01:40:56;3.27;;;2.20;;
15102;SDS011;7652;53.584;9.998;2022-09-27T01:44:08;2.33;;;1.93;;
15102;SDS011;7652;53.584;9.998;2022-09-27T01:47:17;2.10;;;1.90;;
15102;SDS011;7652;53.584;9.998;2022-09-27T01:50:22;1.90;;;1.80;;
15102;SDS011;7652;53.584;9.998;2022-09-27T01:53:30;2.67;;;2.00;;
15102;SDS011;7652;53.584;9.998;2022-09-27T01:56:38;1.97;;;1.87;;
15102;SDS011;7652;53.584;9.998;2022-09-27T01:59:46;2.30;;;2.10;;
15102;SDS011;7652;53.584;9.998;2022-09-27T02:02:54;2.50;;;2.07;;
15102;SDS011;7652;53.584;9.998;2022-09-27T02:06:01;2.10;;;2.00;;
15102;SDS011;7652;53.584;9.998;2022-09-27T02:09:10;2.17;;;2.00;;
15102;SDS011;7652;53.584;9.998;2022-09-27T02:12:18;2.37;;;1.93;;
15102;SDS011;7652;53.584;9.998;2022-09-27T02:15:25;3.10;;;2.10;;
15102;SDS011;7652;53.584;9.998;2022-09-27T02:18:31;2.00;;;1.80;;
15102;SDS011;7652;53.584;9.998;2022-09-27T02:21:39;2.47;;;1.90;;
15102;SDS011;7652;53.584;9.998;2022-09-27T02:24:47;2.40;;;1.97;;
15102;SDS011;7652;53.584;9.998;2022-09-27T02:27:58;2.53;;;2.40;;
15102;SDS011;7652;53.584;9.998;2022-09-27T02:31:08;2.37;;;2.03;;
15102;SDS011;7652;53.584;9.998;2022-09-27T02:34:14;2.30;;;2.10;;
15102;SDS011;7652;53.584;9.998;2022-09-27T02:37:21;2.47;;;2.20;;
15102;SDS011;7652;53.584;9.998;2022-09-27T02:40:24;2.43;;;2.23;;
15102;SDS011;7652;53.584;9.998;2022-09-27T02:43:33;2.27;;;2.10;;
15102;SDS011;7652;53.584;9.998;2022-09-27T02:46:46;1.90;;;1.80;;
15102;SDS011;7652;53.584;9.998;2022-09-27T02:50:01;2.40;;;2.20;;
15102;SDS011;7652;53.584;9.998;2022-09-27T02:53:21;2.60;;;2.30;;
15102;SDS011;7652;53.584;9.998;2022-09-27T02:56:33;2.20;;;2.10;;
15102;SDS011;7652;53.584;9.998;2022-09-27T02:59:45;2.37;;;2.27;;
15102;SDS011;7652;53.584;9.998;2022-09-27T03:02:58;1.93;;;1.83;;
15102;SDS011;7652;53.584;9.998;2022-09-27T03:06:07;2.83;;;2.10;;
15102;SDS011;7652;53.584;9.998;2022-09-27T03:09:18;2.43;;;2.20;;
15102;SDS011;7652;53.584;9.998;2022-09-27T03:12:21;2.07;;;1.97;;
15102;SDS011;7652;53.584;9.998;2022-09-27T03:15:27;3.17;;;2.17;;
15102;SDS011;7652;53.584;9.998;2022-09-27T03:18:30;2.20;;;2.10;;
15102;SDS011;7652;53.584;9.998;2022-09-27T03:21:34;2.30;;;2.10;;
15102;SDS011;7652;53.584;9.998;2022-09-27T03:24:37;2.53;;;2.10;;
15102;SDS011;7652;53.584;9.998;2022-09-27T03:27:40;2.60;;;2.40;;
15102;SDS011;7652;53.584;9.998;2022-09-27T03:30:44;2.77;;;2.00;;
15102;SDS011;7652;53.584;9.998;2022-09-27T03:33:48;2.40;;;2.13;;
15102;SDS011;7652;53.584;9.998;2022-09-27T03:36:52;2.47;;;1.90;;
15102;SDS011;7652;53.584;9.998;2022-09-27T03:39:55;2.40;;;2.20;;
15102;SDS011;7652;53.584;9.998;2022-09-27T03:42:58;2.90;;;2.30;;
15102;SDS011;7652;53.584;9.998;2022-09-27T03:46:02;2.50;;;2.30;;
15102;SDS011;7652;53.584;9.998;2022-09-27T03:49:05;2.77;;;2.10;;
15102;SDS011;7652;53.584;9.998;2022-09-27T03:52:09;2.63;;;2.43;;
15102;SDS011;7652;53.584;9.998;2022-09-27T03:55:12;3.20;;;2.37;;
15102;SDS011;7652;53.584;9.998;2022-09-27T03:58:15;2.73;;;2.53;;
15102;SDS011;7652;53.584;9.998;2022-09-27T04:01:18;1.90;;;1.80;;
15102;SDS011;7652;53.584;9.998;2022-09-27T04:04:21;2.50;;;2.37;;
15102;SDS011;7652;53.584;9.998;2022-09-27T04:07:26;2.33;;;2.20;;
15102;SDS011;7652;53.584;9.998;2022-09-27T04:10:30;2.57;;;2.20;;
15102;SDS011;7652;53.584;9.998;2022-09-27T04:13:33;2.40;;;2.30;;
15102;SDS011;7652;53.584;9.998;2022-09-27T04:16:36;2.20;;;2.00;;
15102;SDS011;7652;53.584;9.998;2022-09-27T04:19:39;2.70;;;2.50;;
15102;SDS011;7652;53.584;9.998;2022-09-27T04:22:43;2.40;;;2.20;;
15102;SDS011;7652;53.584;9.998;2022-09-27T04:25:46;2.50;;;2.30;;
15102;SDS011;7652;53.584;9.998;2022-09-27T04:28:49;2.70;;;2.50;;
15102;SDS011;7652;53.584;9.998;2022-09-27T04:31:55;3.00;;;2.80;;
15102;SDS011;7652;53.584;9.998;2022-09-27T04:34:58;2.90;;;2.60;;
15102;SDS011;7652;53.584;9.998;2022-09-27T04:38:19;2.73;;;2.50;;
15102;SDS011;7652;53.584;9.998;2022-09-27T04:41:24;2.43;;;2.30;;
15102;SDS011;7652;53.584;9.998;2022-09-27T04:44:28;2.37;;;2.27;;
15102;SDS011;7652;53.584;9.998;2022-09-27T04:47:31;2.30;;;2.10;;
15102;SDS011;7652;53.584;9.998;2022-09-27T04:50:35;2.80;;;2.60;;
15102;SDS011;7652;53.584;9.998;2022-09-27T04:53:39;2.80;;;2.60;;
15102;SDS011;7652;53.584;9.998;2022-09-27T04:56:42;2.67;;;2.40;;
15102;SDS011;7652;53.584;9.998;2022-09-27T04:59:45;2.63;;;2.20;;
15102;SDS011;7652;53.584;9.998;2022-09-27T05:02:50;2.90;;;2.70;;
15102;SDS011;7652;53.584;9.998;2022-09-27T05:05:53;5.10;;;4.07;;
15102;SDS011;7652;53.584;9.998;2022-09-27T05:08:58;4.00;;;3.43;;
15102;SDS011;7652;53.584;9.998;2022-09-27T05:12:01;4.77;;;3.83;;
15102;SDS011;7652;53.584;9.998;2022-09-27T05:15:06;4.40;;;3.97;;
15102;SDS011;7652;53.584;9.998;2022-09-27T05:18:10;4.83;;;4.10;;
15102;SDS011;7652;53.584;9.998;2022-09-27T05:21:13;4.23;;;3.90;;
15102;SDS011;7652;53.584;9.998;2022-09-27T05:24:17;5.43;;;4.93;;
15102;SDS011;7652;53.584;9.998;2022-09-27T05:27:21;5.83;;;5.33;;
15102;SDS011;7652;53.584;9.998;2022-09-27T05:30:24;6.20;;;4.93;;
15102;SDS011;7652;53.584;9.998;2022-09-27T05:33:28;5.53;;;5.03;;
15102;SDS011;7652;53.584;9.998;2022-09-27T05:36:31;5.87;;;5.43;;
15102;SDS011;7652;53.584;9.998;2022-09-27T05:39:35;6.13;;;5.57;;
15102;SDS011;7652;53.584;9.998;2022-09-27T05:42:38;6.50;;;5.83;;
15102;SDS011;7652;53.584;9.998;2022-09-27T05:45:42;6.40;;;5.87;;
15102;SDS011;7652;53.584;9.998;2022-09-27T05:48:45;6.87;;;5.67;;
15102;SDS011;7652;53.584;9.998;2022-09-27T05:51:48;6.37;;;5.83;;
15102;SDS011;7652;53.584;9.998;2022-09-27T05:54:52;7.60;;;6.53;;
15102;SDS011;7652;53.584;9.998;2022-09-27T05:57:55;8.20;;;7.40;;
15102;SDS011;7652;53.584;9.998;2022-09-27T06:00:59;7.97;;;7.17;;
15102;SDS011;7652;53.584;9.998;2022-09-27T06:04:02;9.17;;;7.90;;
15102;SDS011;7652;53.584;9.998;2022-09-27T06:07:06;10.17;;;9.17;;
15102;SDS011;7652;53.584;9.998;2022-09-27T06:10:10;9.83;;;8.83;;
15102;SDS011;7652;53.584;9.998;2022-09-27T06:13:14;10.50;;;9.50;;
15102;SDS011;7652;53.584;9.998;2022-09-27T06:16:18;11.10;;;10.00;;
15102;SDS011;7652;53.584;9.998;2022-09-27T06:19:21;8.43;;;7.73;;
15102;SDS011;7652;53.584;9.998;2022-09-27T06:22:24;8.87;;;7.33;;
15102;SDS011;7652;53.584;9.998;2022-09-27T06:25:28;8.93;;;8.03;;
15102;SDS011;7652;53.584;9.998;2022-09-27T06:28:32;8.33;;;7.40;;
15102;SDS011;7652;53.584;9.998;2022-09-27T06:31:35;8.10;;;7.30;;
15102;SDS011;7652;53.584;9.998;2022-09-27T06:34:38;9.17;;;7.30;;
15102;SDS011;7652;53.584;9.998;2022-09-27T06:37:42;7.90;;;7.17;;
15102;SDS011;7652;53.584;9.998;2022-09-27T06:40:46;6.73;;;6.03;;
15102;SDS011;7652;53.584;9.998;2022-09-27T06:43:49;6.77;;;5.87;;
15102;SDS011;7652;53.584;9.998;2022-09-27T06:46:52;5.93;;;5.33;;
15102;SDS011;7652;53.584;9.998;2022-09-27T06:49:56;6.93;;;5.13;;
15102;SDS011;7652;53.584;9.998;2022-09-27T06:52:59;5.97;;;5.33;;
15102;SDS011;7652;53.584;9.998;2022-09-27T06:56:03;6.63;;;4.77;;
15102;SDS011;7652;53.584;9.998;2022-09-27T06:59:07;6.10;;;4.43;;
15102;SDS011;7652;53.584;9.998;2022-09-27T07:02:27;3.83;;;2.97;;
15102;SDS011;7652;53.584;9.998;2022-09-27T07:05:30;2.93;;;2.70;;
15102;SDS011;7652;53.584;9.998;2022-09-27T07:08:33;3.33;;;2.80;;
15102;SDS011;7652;53.584;9.998;2022-09-27T07:11:38;3.67;;;2.90;;
15102;SDS011;7652;53.584;9.998;2022-09-27T07:14:42;4.10;;;2.63;;
15102;SDS011;7652;53.584;9.998;2022-09-27T07:17:45;3.23;;;2.93;;
15102;SDS011;7652;53.584;9.998;2022-09-27T07:20:48;4.10;;;2.10;;
15102;SDS011;7652;53.584;9.998;2022-09-27T07:27:04;3.30;;;1.20;;
15102;SDS011;7652;53.584;9.998;2022-09-27T07:30:08;2.50;;;1.33;;
15102;SDS011;7652;53.584;9.998;2022-09-27T07:33:12;2.37;;;1.00;;
15102;SDS011;7652;53.584;9.998;2022-09-27T07:36:15;1.20;;;1.00;;
15102;SDS011;7652;53.584;9.998;2022-09-27T07:39:18;1.67;;;1.07;;
15102;SDS011;7652;53.584;9.998;2022-09-27T07:42:23;1.43;;;1.33;;
15102;SDS011;7652;53.584;9.998;2022-09-27T07:45:27;2.77;;;1.10;;
15102;SDS011;7652;53.584;9.998;2022-09-27T07:48:30;3.97;;;1.50;;
15102;SDS011;7652;53.584;9.998;2022-09-27T07:51:33;2.57;;;1.23;;
15102;SDS011;7652;53.584;9.998;2022-09-27T07:54:36;2.07;;;1.10;;
15102;SDS011;7652;53.584;9.998;2022-09-27T07:57:40;1.50;;;1.07;;
15102;SDS011;7652;53.584;9.998;2022-09-27T08:00:45;2.23;;;1.23;;
15102;SDS011;7652;53.584;9.998;2022-09-27T08:03:48;1.10;;;0.90;;
15102;SDS011;7652;53.584;9.998;2022-09-27T08:06:51;1.77;;;1.10;;
15102;SDS011;7652;53.584;9.998;2022-09-27T08:09:54;1.50;;;1.30;;
15102;SDS011;7652;53.584;9.998;2022-09-27T08:12:59;2.23;;;1.20;;
15102;SDS011;7652;53.584;9.998;2022-09-27T08:16:03;1.67;;;1.13;;
15102;SDS011;7652;53.584;9.998;2022-09-27T08:19:07;3.63;;;1.70;;
15102;SDS011;7652;53.584;9.998;2022-09-27T08:22:11;2.30;;;1.37;;
15102;SDS011;7652;53.584;9.998;2022-09-27T08:25:15;2.37;;;1.10;;
15102;SDS011;7652;53.584;9.998;2022-09-27T08:28:19;3.03;;;1.43;;
15102;SDS011;7652;53.584;9.998;2022-09-27T08:31:22;2.27;;;1.30;;
15102;SDS011;7652;53.584;9.998;2022-09-27T08:34:26;2.70;;;1.40;;
15102;SDS011;7652;53.584;9.998;2022-09-27T08:37:29;2.20;;;1.00;;
15102;SDS011;7652;53.584;9.998;2022-09-27T08:40:37;2.17;;;1.20;;
15102;SDS011;7652;53.584;9.998;2022-09-27T08:43:51;4.03;;;1.30;;
15102;SDS011;7652;53.584;9.998;2022-09-27T08:47:09;1.70;;;1.33;;
15102;SDS011;7652;53.584;9.998;2022-09-27T08:50:21;1.83;;;1.00;;
15102;SDS011;7652;53.584;9.998;2022-09-27T08:53:29;3.33;;;1.67;;
15102;SDS011;7652;53.584;9.998;2022-09-27T08:56:35;3.07;;;2.33;;
15102;SDS011;7652;53.584;9.998;2022-09-27T08:59:41;2.63;;;1.23;;
15102;SDS011;7652;53.584;9.998;2022-09-27T09:02:47;3.17;;;1.60;;
15102;SDS011;7652;53.584;9.998;2022-09-27T09:05:53;1.40;;;1.17;;
15102;SDS011;7652;53.584;9.998;2022-09-27T09:09:10;2.77;;;1.30;;
15102;SDS011;7652;53.584;9.998;2022-09-27T09:12:25;2.37;;;1.10;;
15102;SDS011;7652;53.584;9.998;2022-09-27T09:15:49;2.40;;;1.20;;
15102;SDS011;7652;53.584;9.998;2022-09-27T09:19:04;2.23;;;1.40;;
15102;SDS011;7652;53.584;9.998;2022-09-27T09:22:26;1.80;;;1.13;;
15102;SDS011;7652;53.584;9.998;2022-09-27T09:25:42;1.57;;;1.27;;
15102;SDS011;7652;53.584;9.998;2022-09-27T09:28:59;1.53;;;1.00;;
15102;SDS011;7652;53.584;9.998;2022-09-27T09:32:24;1.70;;;1.20;;
15102;SDS011;7652;53.584;9.998;2022-09-27T09:35:36;0.87;;;0.87;;
15102;SDS011;7652;53.584;9.998;2022-09-27T09:38:43;2.17;;;1.23;;
15102;SDS011;7652;53.584;9.998;2022-09-27T09:41:57;1.73;;;1.07;;
15102;SDS011;7652;53.584;9.998;2022-09-27T09:45:12;1.90;;;0.87;;
15102;SDS011;7652;53.584;9.998;2022-09-27T09:48:22;1.00;;;0.77;;
15102;SDS011;7652;53.584;9.998;2022-09-27T09:51:32;1.23;;;0.90;;
15102;SDS011;7652;53.584;9.998;2022-09-27T09:54:41;1.27;;;0.80;;
15102;SDS011;7652;53.584;9.998;2022-09-27T09:57:53;2.30;;;1.40;;
15102;SDS011;7652;53.584;9.998;2022-09-27T10:01:08;0.80;;;0.80;;
15102;SDS011;7652;53.584;9.998;2022-09-27T10:04:18;1.73;;;0.87;;
15102;SDS011;7652;53.584;9.998;2022-09-27T10:07:23;2.07;;;0.87;;
15102;SDS011;7652;53.584;9.998;2022-09-27T10:10:27;1.90;;;0.80;;
15102;SDS011;7652;53.584;9.998;2022-09-27T10:13:31;0.73;;;0.73;;
15102;SDS011;7652;53.584;9.998;2022-09-27T10:16:36;0.90;;;0.70;;
15102;SDS011;7652;53.584;9.998;2022-09-27T10:19:45;1.43;;;0.83;;
15102;SDS011;7652;53.584;9.998;2022-09-27T10:22:52;3.70;;;0.83;;
15102;SDS011;7652;53.584;9.998;2022-09-27T10:25:57;1.60;;;0.87;;
15102;SDS011;7652;53.584;9.998;2022-09-27T10:32:24;1.17;;;0.87;;
15102;SDS011;7652;53.584;9.998;2022-09-27T10:35:34;2.20;;;0.80;;
15102;SDS011;7652;53.584;9.998;2022-09-27T10:38:39;1.27;;;0.80;;
15102;SDS011;7652;53.584;9.998;2022-09-27T10:41:52;1.27;;;0.60;;
15102;SDS011;7652;53.584;9.998;2022-09-27T10:44:55;0.87;;;0.87;;
15102;SDS011;7652;53.584;9.998;2022-09-27T10:47:59;1.53;;;0.90;;
15102;SDS011;7652;53.584;9.998;2022-09-27T10:51:07;1.23;;;0.90;;
15102;SDS011;7652;53.584;9.998;2022-09-27T10:54:24;1.10;;;0.90;;
15102;SDS011;7652;53.584;9.998;2022-09-27T10:57:29;2.50;;;0.80;;
15102;SDS011;7652;53.584;9.998;2022-09-27T11:00:33;1.13;;;0.60;;
15102;SDS011;7652;53.584;9.998;2022-09-27T11:03:38;1.87;;;0.90;;
15102;SDS011;7652;53.584;9.998;2022-09-27T11:06:50;2.30;;;1.10;;
15102;SDS011;7652;53.584;9.998;2022-09-27T11:09:54;0.80;;;0.80;;
15102;SDS011;7652;53.584;9.998;2022-09-27T11:13:13;1.00;;;0.90;;
15102;SDS011;7652;53.584;9.998;2022-09-27T11:16:20;0.63;;;0.60;;
15102;SDS011;7652;53.584;9.998;2022-09-27T11:19:35;1.77;;;1.10;;
15102;SDS011;7652;53.584;9.998;2022-09-27T11:23:01;0.67;;;0.60;;
15102;SDS011;7652;53.584;9.998;2022-09-27T11:26:35;0.73;;;0.73;;
15102;SDS011;7652;53.584;9.998;2022-09-27T11:29:49;1.40;;;1.13;;
15102;SDS011;7652;53.584;9.998;2022-09-27T11:33:08;1.13;;;1.03;;
15102;SDS011;7652;53.584;9.998;2022-09-27T11:36:30;1.67;;;0.90;;
15102;SDS011;7652;53.584;9.998;2022-09-27T11:39:47;0.77;;;0.77;;
15102;SDS011;7652;53.584;9.998;2022-09-27T11:43:06;1.77;;;1.30;;
15102;SDS011;7652;53.584;9.998;2022-09-27T11:46:32;2.67;;;2.47;;
15102;SDS011;7652;53.584;9.998;2022-09-27T11:49:52;1.93;;;1.00;;
15102;SDS011;7652;53.584;9.998;2022-09-27T11:53:17;1.37;;;0.90;;
15102;SDS011;7652;53.584;9.998;2022-09-27T11:56:33;1.13;;;0.97;;
15102;SDS011;7652;53.584;9.998;2022-09-27T11:59:56;1.83;;;1.00;;
15102;SDS011;7652;53.584;9.998;2022-09-27T12:03:19;1.90;;;0.90;;
15102;SDS011;7652;53.584;9.998;2022-09-27T12:06:36;1.17;;;0.83;;
15102;SDS011;7652;53.584;9.998;2022-09-27T12:09:46;1.30;;;0.90;;
15102;SDS011;7652;53.584;9.998;2022-09-27T12:12:55;1.00;;;0.70;;
15102;SDS011;7652;53.584;9.998;2022-09-27T12:16:00;1.17;;;0.50;;
15102;SDS011;7652;53.584;9.998;2022-09-27T12:19:04;0.90;;;0.53;;
15102;SDS011;7652;53.584;9.998;2022-09-27T12:22:19;0.70;;;0.70;;
15102;SDS011;7652;53.584;9.998;2022-09-27T12:25:47;1.27;;;0.80;;
15102;SDS011;7652;53.584;9.998;2022-09-27T12:28:55;0.60;;;0.50;;
15102;SDS011;7652;53.584;9.998;2022-09-27T12:32:03;0.47;;;0.47;;
15102;SDS011;7652;53.584;9.998;2022-09-27T12:35:14;1.07;;;0.77;;
15102;SDS011;7652;53.584;9.998;2022-09-27T12:38:21;0.90;;;0.77;;
15102;SDS011;7652;53.584;9.998;2022-09-27T12:41:31;2.50;;;0.93;;
15102;SDS011;7652;53.584;9.998;2022-09-27T12:44:40;1.57;;;1.00;;
15102;SDS011;7652;53.584;9.998;2022-09-27T12:47:54;0.77;;;0.70;;
15102;SDS011;7652;53.584;9.998;2022-09-27T12:51:06;1.20;;;0.60;;
15102;SDS011;7652;53.584;9.998;2022-09-27T12:54:21;2.83;;;0.83;;
15102;SDS011;7652;53.584;9.998;2022-09-27T12:57:40;1.23;;;0.70;;
15102;SDS011;7652;53.584;9.998;2022-09-27T13:00:54;1.30;;;0.80;;
15102;SDS011;7652;53.584;9.998;2022-09-27T13:04:04;2.30;;;0.57;;
15102;SDS011;7652;53.584;9.998;2022-09-27T13:07:25;3.93;;;0.57;;
15102;SDS011;7652;53.584;9.998;2022-09-27T13:10:42;1.63;;;0.60;;
15102;SDS011;7652;53.584;9.998;2022-09-27T13:13:55;0.47;;;0.47;;
15102;SDS011;7652;53.584;9.998;2022-09-27T13:17:02;0.50;;;0.50;;
15102;SDS011;7652;53.584;9.998;2022-09-27T13:26:58;1.10;;;0.50;;
15102;SDS011;7652;53.584;9.998;2022-09-27T13:33:44;0.53;;;0.40;;
15102;SDS011;7652;53.584;9.998;2022-09-27T13:36:49;0.77;;;0.40;;
15102;SDS011;7652;53.584;9.998;2022-09-27T13:40:07;0.63;;;0.50;;
15102;SDS011;7652;53.584;9.998;2022-09-27T13:43:30;0.87;;;0.40;;
15102;SDS011;7652;53.584;9.998;2022-09-27T13:46:44;1.40;;;0.60;;
15102;SDS011;7652;53.584;9.998;2022-09-27T13:49:56;1.47;;;0.50;;
15102;SDS011;7652;53.584;9.998;2022-09-27T13:53:05;1.30;;;0.60;;
15102;SDS011;7652;53.584;9.998;2022-09-27T13:56:45;0.77;;;0.40;;
15102;SDS011;7652;53.584;9.998;2022-09-27T13:59:53;1.13;;;0.70;;
15102;SDS011;7652;53.584;9.998;2022-09-27T14:03:03;0.80;;;0.60;;
15102;SDS011;7652;53.584;9.998;2022-09-27T14:06:12;0.77;;;0.47;;
15102;SDS011;7652;53.584;9.998;2022-09-27T14:09:19;0.60;;;0.57;;
15102;SDS011;7652;53.584;9.998;2022-09-27T14:12:27;0.97;;;0.60;;
15102;SDS011;7652;53.584;9.998;2022-09-27T14:15:33;0.90;;;0.80;;
15102;SDS011;7652;53.584;9.998;2022-09-27T14:18:40;2.10;;;0.50;;
15102;SDS011;7652;53.584;9.998;2022-09-27T14:21:47;1.33;;;1.00;;
15102;SDS011;7652;53.584;9.998;2022-09-27T14:24:51;1.00;;;0.70;;
15102;SDS011;7652;53.584;9.998;2022-09-27T14:27:55;1.60;;;0.70;;
15102;SDS011;7652;53.584;9.998;2022-09-27T14:31:04;0.57;;;0.47;;
15102;SDS011;7652;53.584;9.998;2022-09-27T14:34:10;1.17;;;0.70;;
15102;SDS011;7652;53.584;9.998;2022-09-27T14:37:20;1.63;;;1.20;;
15102;SDS011;7652;53.584;9.998;2022-09-27T14:40:24;2.00;;;1.00;;
15102;SDS011;7652;53.584;9.998;2022-09-27T14:43:29;0.67;;;0.67;;
15102;SDS011;7652;53.584;9.998;2022-09-27T14:46:33;1.27;;;0.77;;
15102;SDS011;7652;53.584;9.998;2022-09-27T14:49:44;1.60;;;0.77;;
15102;SDS011;7652;53.584;9.998;2022-09-27T14:52:50;0.87;;;0.80;;
15102;SDS011;7652;53.584;9.998;2022-09-27T14:55:55;1.27;;;0.80;;
15102;SDS011;7652;53.584;9.998;2022-09-27T14:59:01;1.73;;;0.70;;
15102;SDS011;7652;53.584;9.998;2022-09-27T15:02:10;1.03;;;0.70;;
15102;SDS011;7652;53.584;9.998;2022-09-27T15:05:20;1.43;;;0.70;;
15102;SDS011;7652;53.584;9.998;2022-09-27T15:08:26;1.33;;;0.90;;
15102;SDS011;7652;53.584;9.998;2022-09-27T15:11:33;1.00;;;0.90;;
15102;SDS011;7652;53.584;9.998;2022-09-27T15:14:37;1.60;;;1.00;;
15102;SDS011;7652;53.584;9.998;2022-09-27T15:17:43;1.30;;;0.47;;
15102;SDS011;7652;53.584;9.998;2022-09-27T15:20:51;0.93;;;0.60;;
15102;SDS011;7652;53.584;9.998;2022-09-27T15:23:56;2.40;;;0.70;;
15102;SDS011;7652;53.584;9.998;2022-09-27T15:26:59;0.90;;;0.60;;
15102;SDS011;7652;53.584;9.998;2022-09-27T15:30:02;2.07;;;0.80;;
15102;SDS011;7652;53.584;9.998;2022-09-27T15:33:15;0.93;;;0.70;;
15102;SDS011;7652;53.584;9.998;2022-09-27T15:39:55;1.23;;;0.70;;
15102;SDS011;7652;53.584;9.998;2022-09-27T15:43:25;0.70;;;0.70;;
15102;SDS011;7652;53.584;9.998;2022-09-27T15:46:34;1.50;;;0.77;;
15102;SDS011;7652;53.584;9.998;2022-09-27T15:49:38;1.10;;;0.50;;
15102;SDS011;7652;53.584;9.998;2022-09-27T15:52:42;1.80;;;0.90;;
15102;SDS011;7652;53.584;9.998;2022-09-27T15:55:48;1.70;;;0.70;;
15102;SDS011;7652;53.584;9.998;2022-09-27T15:58:51;1.80;;;0.93;;
15102;SDS011;7652;53.584;9.998;2022-09-27T16:01:56;2.30;;;0.80;;
15102;SDS011;7652;53.584;9.998;2022-09-27T16:05:04;2.13;;;1.10;;
15102;SDS011;7652;53.584;9.998;2022-09-27T16:08:08;2.07;;;1.00;;
15102;SDS011;7652;53.584;9.998;2022-09-27T16:11:14;0.67;;;0.43;;
15102;SDS011;7652;53.584;9.998;2022-09-27T16:14:18;2.10;;;0.90;;
15102;SDS011;7652;53.584;9.998;2022-09-27T16:17:21;2.63;;;0.73;;
15102;SDS011;7652;53.584;9.998;2022-09-27T16:20:25;2.43;;;0.70;;
15102;SDS011;7652;53.584;9.998;2022-09-27T16:23:28;2.57;;;0.83;;
15102;SDS011;7652;53.584;9.998;2022-09-27T16:26:33;2.73;;;0.80;;
15102;SDS011;7652;53.584;9.998;2022-09-27T16:29:36;2.13;;;0.77;;
15102;SDS011;7652;53.584;9.998;2022-09-27T16:32:45;2.00;;;0.80;;
15102;SDS011;7652;53.584;9.998;2022-09-27T16:35:49;1.23;;;0.80;;
15102;SDS011;7652;53.584;9.998;2022-09-27T16:38:53;2.07;;;1.13;;
15102;SDS011;7652;53.584;9.998;2022-09-27T16:41:57;1.33;;;0.80;;
15102;SDS011;7652;53.584;9.998;2022-09-27T16:45:05;3.70;;;0.97;;
15102;SDS011;7652;53.584;9.998;2022-09-27T16:48:14;1.03;;;0.77;;
15102;SDS011;7652;53.584;9.998;2022-09-27T16:51:18;2.63;;;1.00;;
15102;SDS011;7652;53.584;9.998;2022-09-27T16:54:40;1.93;;;0.80;;
15102;SDS011;7652;53.584;9.998;2022-09-27T16:57:45;4.63;;;0.93;;
15102;SDS011;7652;53.584;9.998;2022-09-27T17:00:48;1.57;;;0.80;;
15102;SDS011;7652;53.584;9.998;2022-09-27T17:03:51;2.57;;;1.00;;
15102;SDS011;7652;53.584;9.998;2022-09-27T17:06:58;2.37;;;0.93;;
15102;SDS011;7652;53.584;9.998;2022-09-27T17:10:01;2.10;;;1.03;;
15102;SDS011;7652;53.584;9.998;2022-09-27T17:13:05;1.00;;;0.90;;
15102;SDS011;7652;53.584;9.998;2022-09-27T17:16:08;1.73;;;0.90;;
15102;SDS011;7652;53.584;9.998;2022-09-27T17:19:12;1.60;;;1.00;;
15102;SDS011;7652;53.584;9.998;2022-09-27T17:22:15;1.83;;;0.73;;
15102;SDS011;7652;53.584;9.998;2022-09-27T17:25:19;3.53;;;1.00;;
15102;SDS011;7652;53.584;9.998;2022-09-27T17:28:23;1.40;;;1.03;;
15102;SDS011;7652;53.584;9.998;2022-09-27T17:31:26;1.53;;;0.90;;
15102;SDS011;7652;53.584;9.998;2022-09-27T17:34:32;1.63;;;0.80;;
15102;SDS011;7652;53.584;9.998;2022-09-27T17:37:35;1.27;;;0.80;;
15102;SDS011;7652;53.584;9.998;2022-09-27T17:40:38;1.40;;;0.80;;
15102;SDS011;7652;53.584;9.998;2022-09-27T17:43:42;1.83;;;0.83;;
15102;SDS011;7652;53.584;9.998;2022-09-27T17:46:50;1.83;;;0.73;;
15102;SDS011;7652;53.584;9.998;2022-09-27T17:50:13;2.17;;;0.73;;
15102;SDS011;7652;53.584;9.998;2022-09-27T17:53:28;1.47;;;0.80;;
15102;SDS011;7652;53.584;9.998;2022-09-27T17:56:36;1.77;;;0.70;;
15102;SDS011;7652;53.584;9.998;2022-09-27T17:59:42;0.90;;;0.70;;
15102;SDS011;7652;53.584;9.998;2022-09-27T18:02:45;1.20;;;0.70;;
15102;SDS011;7652;53.584;9.998;2022-09-27T18:05:48;0.90;;;0.90;;
15102;SDS011;7652;53.584;9.998;2022-09-27T18:08:52;1.90;;;0.70;;
15102;SDS011;7652;53.584;9.998;2022-09-27T18:11:55;1.23;;;0.70;;
15102;SDS011;7652;53.584;9.998;2022-09-27T18:15:00;1.43;;;1.00;;
15102;SDS011;7652;53.584;9.998;2022-09-27T18:18:03;2.03;;;0.70;;
15102;SDS011;7652;53.584;9.998;2022-09-27T18:21:06;1.27;;;1.10;;
15102;SDS011;7652;53.584;9.998;2022-09-27T18:24:11;1.33;;;0.73;;
15102;SDS011;7652;53.584;9.998;2022-09-27T18:27:15;0.83;;;0.80;;
15102;SDS011;7652;53.584;9.998;2022-09-27T18:30:21;1.17;;;0.90;;
15102;SDS011;7652;53.584;9.998;2022-09-27T18:33:24;2.60;;;1.20;;
15102;SDS011;7652;53.584;9.998;2022-09-27T18:36:27;1.17;;;1.03;;
15102;SDS011;7652;53.584;9.998;2022-09-27T18:39:30;2.47;;;1.00;;
15102;SDS011;7652;53.584;9.998;2022-09-27T18:42:33;2.40;;;1.20;;
15102;SDS011;7652;53.584;9.998;2022-09-27T18:45:37;1.67;;;1.27;;
15102;SDS011;7652;53.584;9.998;2022-09-27T18:48:40;2.13;;;1.40;;
15102;SDS011;7652;53.584;9.998;2022-09-27T18:51:44;1.33;;;1.23;;
15102;SDS011;7652;53.584;9.998;2022-09-27T18:54:47;3.03;;;1.40;;
15102;SDS011;7652;53.584;9.998;2022-09-27T18:57:52;1.40;;;1.30;;
15102;SDS011;7652;53.584;9.998;2022-09-27T19:00:58;3.07;;;1.93;;
15102;SDS011;7652;53.584;9.998;2022-09-27T19:04:01;1.50;;;1.40;;
15102;SDS011;7652;53.584;9.998;2022-09-27T19:07:04;1.50;;;1.40;;
15102;SDS011;7652;53.584;9.998;2022-09-27T19:10:08;1.57;;;1.47;;
15102;SDS011;7652;53.584;9.998;2022-09-27T19:13:11;2.40;;;1.67;;
15102;SDS011;7652;53.584;9.998;2022-09-27T19:16:15;1.77;;;1.67;;
15102;SDS011;7652;53.584;9.998;2022-09-27T19:19:21;2.10;;;1.67;;
15102;SDS011;7652;53.584;9.998;2022-09-27T19:22:24;2.50;;;1.70;;
15102;SDS011;7652;53.584;9.998;2022-09-27T19:25:27;1.83;;;1.70;;